TimeCST,TemperatureF,Dew PointF,Humidity,Sea Level PressureIn,VisibilityMPH,Wind Direction,Wind SpeedMPH,Gust SpeedMPH,PrecipitationIn,Events,Conditions,WindDirDegrees,DateUTC
12:42 AM,19.4,15.8,86,29.94,5.0,NNW,21.9,-,0.00,Snow,Light Snow,330,2013-01-30 06:42:00
12:53 AM,19.0,15.1,85,30.02,6.0,NNW,23.0,-,0.00,Snow,Light Snow,330,2013-01-30 06:53:00
1:53 AM,19.0,15.1,85,30.01,4.0,NW,16.1,23.0,0.00,Snow,Light Snow,320,2013-01-30 07:53:00
2:24 AM,19.4,15.8,86,29.92,4.0,NW,19.6,-,0.00,Snow,Light Snow,320,2013-01-30 08:24:00
2:53 AM,19.0,15.1,85,30.00,3.0,NW,23.0,-,0.00,Snow,Light Snow,320,2013-01-30 08:53:00
3:39 AM,17.6,14.0,86,29.91,2.0,NW,26.5,35.7,0.00,Snow,Light Snow,320,2013-01-30 09:39:00
3:49 AM,17.6,12.2,79,29.92,3.0,NW,26.5,-,0.00,Snow,Light Snow,310,2013-01-30 09:49:00
3:53 AM,17.1,12.9,84,30.01,2.5,NW,24.2,33.4,0.00,Snow,Light Snow,310,2013-01-30 09:53:00
4:12 AM,15.8,12.2,86,29.93,4.0,NW,25.3,28.8,0.00,Snow,Light Snow,310,2013-01-30 10:12:00
4:53 AM,12.9,9.0,84,30.03,5.0,NW,24.2,31.1,0.00,Snow,Light Snow,320,2013-01-30 10:53:00
5:53 AM,10.9,6.1,81,30.04,5.0,NW,23.0,29.9,0.00,Snow,Light Snow,320,2013-01-30 11:53:00
6:28 AM,10.4,6.8,85,29.94,4.0,NW,20.7,-,0.00,Snow,Light Snow,310,2013-01-30 12:28:00
6:53 AM,9.0,5.0,84,30.05,5.0,NW,15.0,-,0.00,Snow,Light Snow,320,2013-01-30 12:53:00
7:30 AM,8.6,3.2,79,29.95,9.0,NW,13.8,-,0.00,Snow,Light Snow,310,2013-01-30 13:30:00
7:53 AM,9.0,3.0,77,30.04,9.0,NW,15.0,-,0.00,Snow,Light Snow,320,2013-01-30 13:53:00
8:18 AM,8.6,3.2,79,29.94,8.0,NW,15.0,-,0.00,,Overcast,310,2013-01-30 14:18:00
8:30 AM,8.6,3.2,79,29.93,8.0,WNW,11.5,-,0.00,,Overcast,300,2013-01-30 14:30:00
8:51 AM,8.6,3.2,79,29.93,10.0,WNW,17.3,-,0.00,Snow,Light Snow,300,2013-01-30 14:51:00
8:53 AM,8.1,1.9,76,30.04,10.0,NW,18.4,-,0.00,Snow,Light Snow,310,2013-01-30 14:53:00
9:53 AM,8.1,1.9,76,30.04,9.0,NW,16.1,-,0.00,,Overcast,320,2013-01-30 15:53:00
10:53 AM,9.0,1.9,73,30.04,10.0,NW,13.8,-,N/A,,Overcast,310,2013-01-30 16:53:00
11:12 AM,8.6,3.2,79,29.92,9.0,NW,12.7,-,0.00,,Overcast,310,2013-01-30 17:12:00
11:53 AM,10.0,3.0,73,30.02,5.0,NW,15.0,-,0.00,,Haze,310,2013-01-30 17:53:00
12:49 PM,10.4,3.2,73,29.89,10.0,NW,13.8,-,N/A,,Scattered Clouds,310,2013-01-30 18:49:00
12:53 PM,10.9,3.0,70,30.00,10.0,NW,16.1,-,N/A,,Partly Cloudy,310,2013-01-30 18:53:00
1:53 PM,10.9,3.9,73,29.97,10.0,NW,12.7,-,N/A,,Clear,310,2013-01-30 19:53:00
2:53 PM,12.9,5.0,71,29.95,10.0,NW,10.4,-,N/A,,Clear,310,2013-01-30 20:53:00
3:53 PM,12.9,5.0,71,29.96,10.0,WNW,12.7,-,N/A,,Clear,300,2013-01-30 21:53:00
4:53 PM,10.9,3.9,73,29.98,10.0,NNW,12.7,-,N/A,,Mostly Cloudy,330,2013-01-30 22:53:00
5:53 PM,9.0,3.9,80,29.99,6.0,NW,10.4,-,N/A,,Haze,320,2013-01-30 23:53:00
6:53 PM,6.1,1.9,83,30.00,10.0,North,4.6,-,N/A,,Partly Cloudy,360,2013-01-31 00:53:00
7:53 PM,3.9,1.0,88,30.01,10.0,NW,3.5,-,N/A,,Clear,320,2013-01-31 01:53:00
8:53 PM,1.9,-0.9,88,30.02,10.0,West,4.6,-,N/A,,Clear,280,2013-01-31 02:53:00
9:53 PM,3.0,-0.0,87,30.04,10.0,WNW,4.6,-,N/A,,Overcast,290,2013-01-31 03:53:00
10:53 PM,6.1,1.9,83,30.04,10.0,West,6.9,-,N/A,,Overcast,280,2013-01-31 04:53:00
11:53 PM,6.1,1.9,83,30.06,8.0,NNW,8.1,-,0.00,,Overcast,340,2013-01-31 05:53:00